»·PEaware :: N989Z KSNA-KBUR

N989Z :: KSNA-KBUR

FLIGHT INFORMATION

Flight Status: Arrived
Operator: Privately registered:
United States
More flights under this callsign
Pilot: Thiago S. (19132)
Aircraft: CESSNA 210 CENTURION
(C210)
More flights by this aircraft type
Origin: KSNA John Wayne-Orange Co
United States
Destination: KBUR Bob Hope-Burbank
United States
More flights between these airports :: More routes between these airports
Route: SLI V23 POPPR SMO125R SMO SMO311R SILEX
File this flight plan on PilotEdge
Remarks:
Altitude:
(Current/Filed)
4,000ft
Speed:
(Current/Filed)
150kts
Departed: 21-May-18 02:02 PM
Arrived: 21-May-18 02:32 PM
Distance/Time
Traveled:
40nm/0:30
Distance/Time
To Go:
Arrived

Flight Plot

Page will automatically refresh every two minutes.


Map Options




Map Legend


Flown Route
Filed Route
Departure Airport
Arrival Airport
Navaid (VOR, NDB)
Fix

Horizontal Profiles

Position Reports

Time Latitude Longitude Heading Altitude Ground
Speed
21-May-18 13:46 33.674774 -117.871936 23 58ft 0kts
21-May-18 13:47 33.674774 -117.871936 23 58ft 0kts
21-May-18 13:48 33.674774 -117.871936 23 58ft 0kts
21-May-18 13:49 33.674774 -117.871936 23 58ft 0kts
21-May-18 13:50 33.674774 -117.871936 23 58ft 0kts
21-May-18 13:51 33.674774 -117.871936 23 58ft 0kts
21-May-18 13:52 33.674774 -117.871936 23 58ft 0kts
21-May-18 13:53 33.674778 -117.871933 24 58ft 0kts
21-May-18 13:54 33.674782 -117.871931 24 58ft 0kts
21-May-18 13:55 33.674786 -117.871929 24 58ft 0kts
21-May-18 13:56 33.674812 -117.871915 24 58ft 1kts
21-May-18 13:57 33.675329 -117.870657 24 58ft 11kts
21-May-18 13:58 33.680858 -117.867431 22 58ft 17kts
21-May-18 13:59 33.680863 -117.866526 120 58ft 0kts
21-May-18 14:00 33.680849 -117.866497 119 58ft 0kts
21-May-18 14:01 33.680185 -117.865998 209 58ft 1kts
21-May-18 14:02 33.664067 -117.876833 212 929ft 90kts
21-May-18 14:03 33.644407 -117.906252 230 1549ft 127kts
21-May-18 14:04 33.622133 -117.940784 230 2006ft 137kts
21-May-18 14:05 33.624010 -117.977990 330 2382ft 135kts
21-May-18 14:06 33.658103 -117.997028 343 2917ft 136kts
21-May-18 14:07 33.694337 -118.011036 337 3424ft 137kts
21-May-18 14:08 33.729507 -118.028720 337 3925ft 137kts
21-May-18 14:09 33.766656 -118.047351 333 4010ft 151kts
21-May-18 14:10 33.791361 -118.086062 279 4029ft 151kts
21-May-18 14:11 33.802840 -118.135309 286 4010ft 153kts
21-May-18 14:12 33.816380 -118.183672 286 4012ft 153kts
21-May-18 14:13 33.827565 -118.228799 286 4013ft 152kts
21-May-18 14:14 33.839792 -118.277590 286 4013ft 152kts
21-May-18 14:15 33.867364 -118.315186 322 4019ft 153kts
21-May-18 14:16 33.901522 -118.345738 319 4029ft 151kts
21-May-18 14:17 33.933413 -118.379389 319 4024ft 152kts
21-May-18 14:18 33.965857 -118.411861 320 4014ft 151kts
21-May-18 14:19 33.998150 -118.444497 320 4014ft 151kts
21-May-18 14:20 34.031632 -118.474744 327 4014ft 151kts
21-May-18 14:21 34.066674 -118.502591 325 4014ft 151kts
21-May-18 14:22 34.101853 -118.531171 326 4014ft 152kts
21-May-18 14:23 34.136920 -118.559648 325 4029ft 151kts
21-May-18 14:24 34.171949 -118.588311 325 4030ft 152kts
21-May-18 14:25 34.204192 -118.573576 67 3616ft 146kts
21-May-18 14:26 34.199427 -118.526418 91 3063ft 139kts
21-May-18 14:27 34.199443 -118.481648 89 2257ft 125kts
21-May-18 14:28 34.198961 -118.446660 90 2095ft 95kts
21-May-18 14:29 34.198518 -118.414589 90 1625ft 84kts
21-May-18 14:30 34.198185 -118.389334 90 1180ft 72kts
21-May-18 14:31 34.197887 -118.366599 90 782ft 46kts
21-May-18 14:32 34.197136 -118.364529 180 782ft 0kts
21-May-18 14:33 34.196550 -118.364012 176 782ft 8kts
21-May-18 14:34 34.195605 -118.364209 93 782ft 0kts
21-May-18 14:35 34.195605 -118.364209 93 782ft 0kts
21-May-18 14:36 34.195605 -118.364209 93 782ft 0kts
21-May-18 14:37 34.195605 -118.364209 93 782ft 0kts
21-May-18 14:38 34.195605 -118.364209 93 782ft 0kts
21-May-18 14:39 34.195605 -118.364209 93 782ft 0kts
21-May-18 14:40 34.195605 -118.364209 93 782ft 0kts
21-May-18 14:41 34.195605 -118.364209 93 782ft 0kts
21-May-18 14:42 34.195605 -118.364209 93 782ft 0kts
21-May-18 14:43 34.195605 -118.364209 93 782ft 0kts
21-May-18 14:44 34.195605 -118.364209 93 782ft 0kts
21-May-18 14:45 34.195605 -118.364209 93 782ft 0kts
21-May-18 14:46 34.195605 -118.364209 93 782ft 0kts

Navigation Log

Ident Type
Flight plan parsing failed, navigation log unavailable